sensor_id;sensor_type;location;lat;lon;timestamp;temperature;humidity
55711;DHT22;41612;51.994;5.880;2024-03-08T06:22:44;2.60;90.80
55711;DHT22;41612;51.994;5.880;2024-03-08T06:25:17;2.70;90.90
55711;DHT22;41612;51.994;5.880;2024-03-08T06:27:45;2.70;90.80
55711;DHT22;41612;51.994;5.880;2024-03-08T06:30:36;2.70;90.80
55711;DHT22;41612;51.994;5.880;2024-03-08T06:36:25;2.70;90.80
55711;DHT22;41612;51.994;5.880;2024-03-08T06:38:52;2.70;90.70
55711;DHT22;41612;51.994;5.880;2024-03-08T06:41:31;2.70;90.80
55711;DHT22;41612;51.994;5.880;2024-03-08T06:47:58;2.80;90.70
55711;DHT22;41612;51.994;5.880;2024-03-08T06:51:03;2.80;90.60
55711;DHT22;41612;51.994;5.880;2024-03-08T06:53:36;2.80;90.50
55711;DHT22;41612;51.994;5.880;2024-03-08T06:56:39;2.80;90.40
55711;DHT22;41612;51.994;5.880;2024-03-08T07:07:08;2.90;90.20
55711;DHT22;41612;51.994;5.880;2024-03-08T07:10:31;2.90;90.20
55711;DHT22;41612;51.994;5.880;2024-03-08T07:13:17;3.00;90.10
55711;DHT22;41612;51.994;5.880;2024-03-08T07:16:00;3.00;90.00
55711;DHT22;41612;51.994;5.880;2024-03-08T07:18:33;3.00;90.00
55711;DHT22;41612;51.994;5.880;2024-03-08T07:21:06;3.10;89.80
55711;DHT22;41612;51.994;5.880;2024-03-08T07:23:35;3.10;89.70
55711;DHT22;41612;51.994;5.880;2024-03-08T07:26:40;3.20;89.40
55711;DHT22;41612;51.994;5.880;2024-03-08T07:29:16;3.20;89.20
55711;DHT22;41612;51.994;5.880;2024-03-08T07:31:49;3.20;89.10
55711;DHT22;41612;51.994;5.880;2024-03-08T07:34:47;3.30;88.90
55711;DHT22;41612;51.994;5.880;2024-03-08T07:37:17;3.40;88.70
55711;DHT22;41612;51.994;5.880;2024-03-08T07:40:02;3.40;88.60
55711;DHT22;41612;51.994;5.880;2024-03-08T07:43:19;3.50;88.60
55711;DHT22;41612;51.994;5.880;2024-03-08T07:45:53;3.50;88.30
55711;DHT22;41612;51.994;5.880;2024-03-08T07:48:22;3.60;88.40
55711;DHT22;41612;51.994;5.880;2024-03-08T07:54:28;3.80;87.60
55711;DHT22;41612;51.994;5.880;2024-03-08T08:24:45;4.40;85.60
55711;DHT22;41612;51.994;5.880;2024-03-08T08:27:30;4.40;85.00
55711;DHT22;41612;51.994;5.880;2024-03-08T08:30:09;4.50;85.50
55711;DHT22;41612;51.994;5.880;2024-03-08T08:32:37;4.50;85.80
55711;DHT22;41612;51.994;5.880;2024-03-08T08:35:06;4.70;85.60
55711;DHT22;41612;51.994;5.880;2024-03-08T08:37:38;4.80;85.10
55711;DHT22;41612;51.994;5.880;2024-03-08T08:40:04;4.80;83.70
55711;DHT22;41612;51.994;5.880;2024-03-08T08:42:38;4.90;83.60
55711;DHT22;41612;51.994;5.880;2024-03-08T08:45:10;4.90;85.00
55711;DHT22;41612;51.994;5.880;2024-03-08T08:47:39;5.00;85.10
55711;DHT22;41612;51.994;5.880;2024-03-08T08:50:08;5.10;85.60
55711;DHT22;41612;51.994;5.880;2024-03-08T08:52:38;5.20;83.60
55711;DHT22;41612;51.994;5.880;2024-03-08T08:55:04;5.30;83.80
55711;DHT22;41612;51.994;5.880;2024-03-08T09:01:04;5.50;84.10
55711;DHT22;41612;51.994;5.880;2024-03-08T09:03:30;5.60;84.30
55711;DHT22;41612;51.994;5.880;2024-03-08T09:05:56;5.70;84.20
55711;DHT22;41612;51.994;5.880;2024-03-08T09:08:22;5.80;81.70
55711;DHT22;41612;51.994;5.880;2024-03-08T09:11:04;5.90;82.60
55711;DHT22;41612;51.994;5.880;2024-03-08T09:14:05;6.00;80.00
55711;DHT22;41612;51.994;5.880;2024-03-08T09:16:59;6.10;80.40
55711;DHT22;41612;51.994;5.880;2024-03-08T09:19:35;6.20;79.80
55711;DHT22;41612;51.994;5.880;2024-03-08T09:22:04;6.30;81.30
55711;DHT22;41612;51.994;5.880;2024-03-08T09:24:30;6.50;83.40
55711;DHT22;41612;51.994;5.880;2024-03-08T09:27:18;6.50;80.70
55711;DHT22;41612;51.994;5.880;2024-03-08T09:29:47;6.60;81.00
55711;DHT22;41612;51.994;5.880;2024-03-08T09:32:16;6.80;80.70
55711;DHT22;41612;51.994;5.880;2024-03-08T09:34:49;7.00;82.00
55711;DHT22;41612;51.994;5.880;2024-03-08T09:37:20;7.20;81.30
55711;DHT22;41612;51.994;5.880;2024-03-08T09:40:09;7.30;80.80
55711;DHT22;41612;51.994;5.880;2024-03-08T09:42:54;7.50;82.80
55711;DHT22;41612;51.994;5.880;2024-03-08T09:45:40;7.70;80.20
55711;DHT22;41612;51.994;5.880;2024-03-08T09:48:15;7.90;79.40
55711;DHT22;41612;51.994;5.880;2024-03-08T09:50:50;8.20;79.60
55711;DHT22;41612;51.994;5.880;2024-03-08T09:53:45;8.30;79.40
55711;DHT22;41612;51.994;5.880;2024-03-08T09:56:17;8.50;79.20
55711;DHT22;41612;51.994;5.880;2024-03-08T09:58:59;8.70;77.00
55711;DHT22;41612;51.994;5.880;2024-03-08T10:01:46;8.80;74.40
55711;DHT22;41612;51.994;5.880;2024-03-08T10:04:18;8.90;74.70
55711;DHT22;41612;51.994;5.880;2024-03-08T10:06:45;9.10;72.70
55711;DHT22;41612;51.994;5.880;2024-03-08T10:09:12;9.40;75.80
55711;DHT22;41612;51.994;5.880;2024-03-08T10:11:40;9.70;76.30
55711;DHT22;41612;51.994;5.880;2024-03-08T10:14:08;9.80;70.10
55711;DHT22;41612;51.994;5.880;2024-03-08T10:16:40;10.00;69.80
55711;DHT22;41612;51.994;5.880;2024-03-08T10:19:09;10.10;68.00
55711;DHT22;41612;51.994;5.880;2024-03-08T10:21:50;10.20;67.70
55711;DHT22;41612;51.994;5.880;2024-03-08T10:24:24;10.30;66.30
55711;DHT22;41612;51.994;5.880;2024-03-08T10:26:58;10.50;61.60
55711;DHT22;41612;51.994;5.880;2024-03-08T10:29:24;10.70;66.60
55711;DHT22;41612;51.994;5.880;2024-03-08T10:31:49;10.90;63.90
55711;DHT22;41612;51.994;5.880;2024-03-08T10:34:16;11.20;63.00
55711;DHT22;41612;51.994;5.880;2024-03-08T10:36:44;11.20;57.00
55711;DHT22;41612;51.994;5.880;2024-03-08T10:39:22;11.30;60.10
55711;DHT22;41612;51.994;5.880;2024-03-08T10:41:58;11.60;60.60
55711;DHT22;41612;51.994;5.880;2024-03-08T10:48:29;11.90;54.30
55711;DHT22;41612;51.994;5.880;2024-03-08T10:54:41;12.20;55.00
55711;DHT22;41612;51.994;5.880;2024-03-08T10:57:43;12.50;52.60
55711;DHT22;41612;51.994;5.880;2024-03-08T11:00:41;12.70;54.50
55711;DHT22;41612;51.994;5.880;2024-03-08T11:07:05;12.80;54.80
55711;DHT22;41612;51.994;5.880;2024-03-08T11:09:39;13.00;50.80
55711;DHT22;41612;51.994;5.880;2024-03-08T11:12:27;13.10;49.00
55711;DHT22;41612;51.994;5.880;2024-03-08T11:15:09;13.20;52.10
55711;DHT22;41612;51.994;5.880;2024-03-08T11:17:44;13.50;49.50
55711;DHT22;41612;51.994;5.880;2024-03-08T11:20:13;13.70;51.00
55711;DHT22;41612;51.994;5.880;2024-03-08T11:22:49;13.80;52.30
55711;DHT22;41612;51.994;5.880;2024-03-08T11:32:45;13.70;50.60
55711;DHT22;41612;51.994;5.880;2024-03-08T11:35:32;14.10;51.50
55711;DHT22;41612;51.994;5.880;2024-03-08T11:38:36;14.30;50.80
55711;DHT22;41612;51.994;5.880;2024-03-08T11:41:24;14.60;50.10
55711;DHT22;41612;51.994;5.880;2024-03-08T11:44:02;14.70;50.60
55711;DHT22;41612;51.994;5.880;2024-03-08T11:46:36;15.00;48.30
55711;DHT22;41612;51.994;5.880;2024-03-08T11:49:27;15.30;45.90
55711;DHT22;41612;51.994;5.880;2024-03-08T12:35:40;20.30;38.10
55711;DHT22;41612;51.994;5.880;2024-03-08T12:38:27;21.00;34.30
55711;DHT22;41612;51.994;5.880;2024-03-08T12:41:24;21.40;29.00
55711;DHT22;41612;51.994;5.880;2024-03-08T12:43:52;20.60;29.90
55711;DHT22;41612;51.994;5.880;2024-03-08T12:46:21;20.60;32.20
55711;DHT22;41612;51.994;5.880;2024-03-08T13:05:57;23.70;31.10
55711;DHT22;41612;51.994;5.880;2024-03-08T13:08:23;23.90;27.40
55711;DHT22;41612;51.994;5.880;2024-03-08T13:10:50;24.30;27.10
55711;DHT22;41612;51.994;5.880;2024-03-08T13:13:21;24.30;28.10
55711;DHT22;41612;51.994;5.880;2024-03-08T13:15:49;24.50;28.20
55711;DHT22;41612;51.994;5.880;2024-03-08T13:18:16;24.80;26.30
55711;DHT22;41612;51.994;5.880;2024-03-08T13:20:46;25.20;25.40
55711;DHT22;41612;51.994;5.880;2024-03-08T13:23:14;25.70;31.10
55711;DHT22;41612;51.994;5.880;2024-03-08T13:25:43;25.80;30.50
55711;DHT22;41612;51.994;5.880;2024-03-08T13:28:39;26.00;27.90
55711;DHT22;41612;51.994;5.880;2024-03-08T13:31:24;25.70;24.60
55711;DHT22;41612;51.994;5.880;2024-03-08T13:33:49;25.00;26.80
55711;DHT22;41612;51.994;5.880;2024-03-08T13:36:17;25.20;32.20
55711;DHT22;41612;51.994;5.880;2024-03-08T13:38:49;25.50;28.60
55711;DHT22;41612;51.994;5.880;2024-03-08T13:41:18;25.80;28.80
55711;DHT22;41612;51.994;5.880;2024-03-08T13:44:13;26.30;26.40
55711;DHT22;41612;51.994;5.880;2024-03-08T13:47:18;26.60;25.30
55711;DHT22;41612;51.994;5.880;2024-03-08T13:50:09;26.10;25.90
55711;DHT22;41612;51.994;5.880;2024-03-08T13:52:39;25.50;26.20
55711;DHT22;41612;51.994;5.880;2024-03-08T13:55:07;25.30;28.40
55711;DHT22;41612;51.994;5.880;2024-03-08T13:57:36;25.70;25.60
55711;DHT22;41612;51.994;5.880;2024-03-08T14:00:05;26.20;25.50
55711;DHT22;41612;51.994;5.880;2024-03-08T14:02:40;26.00;24.00
55711;DHT22;41612;51.994;5.880;2024-03-08T14:05:12;26.00;30.90
55711;DHT22;41612;51.994;5.880;2024-03-08T14:07:40;26.70;25.40
55711;DHT22;41612;51.994;5.880;2024-03-08T14:10:11;27.40;24.90
55711;DHT22;41612;51.994;5.880;2024-03-08T14:12:38;27.70;22.30
55711;DHT22;41612;51.994;5.880;2024-03-08T14:15:06;27.00;24.60
55711;DHT22;41612;51.994;5.880;2024-03-08T14:17:33;27.20;25.80
55711;DHT22;41612;51.994;5.880;2024-03-08T14:20:08;27.50;22.50
55711;DHT22;41612;51.994;5.880;2024-03-08T14:22:43;27.70;22.90
55711;DHT22;41612;51.994;5.880;2024-03-08T14:25:22;27.70;26.90
55711;DHT22;41612;51.994;5.880;2024-03-08T14:27:53;27.70;28.20
55711;DHT22;41612;51.994;5.880;2024-03-08T14:30:34;27.70;25.90
55711;DHT22;41612;51.994;5.880;2024-03-08T14:33:18;27.80;23.50
55711;DHT22;41612;51.994;5.880;2024-03-08T14:35:51;27.20;22.00
55711;DHT22;41612;51.994;5.880;2024-03-08T14:38:26;26.60;29.30
55711;DHT22;41612;51.994;5.880;2024-03-08T14:40:54;26.60;30.80
55711;DHT22;41612;51.994;5.880;2024-03-08T14:43:22;26.40;31.30
55711;DHT22;41612;51.994;5.880;2024-03-08T14:46:07;26.10;30.00
55711;DHT22;41612;51.994;5.880;2024-03-08T14:48:47;26.00;29.20
55711;DHT22;41612;51.994;5.880;2024-03-08T14:51:14;26.00;27.50
55711;DHT22;41612;51.994;5.880;2024-03-08T14:53:45;26.10;24.00
55711;DHT22;41612;51.994;5.880;2024-03-08T14:56:14;26.00;29.90
55711;DHT22;41612;51.994;5.880;2024-03-08T14:58:46;26.20;25.90
55711;DHT22;41612;51.994;5.880;2024-03-08T15:01:18;26.20;29.70
55711;DHT22;41612;51.994;5.880;2024-03-08T15:03:50;26.60;30.50
55711;DHT22;41612;51.994;5.880;2024-03-08T15:06:16;26.80;30.40
55711;DHT22;41612;51.994;5.880;2024-03-08T15:08:46;27.20;29.80
55711;DHT22;41612;51.994;5.880;2024-03-08T15:11:12;27.20;26.20
55711;DHT22;41612;51.994;5.880;2024-03-08T15:13:38;27.20;25.30
55711;DHT22;41612;51.994;5.880;2024-03-08T15:16:10;26.70;30.90
55711;DHT22;41612;51.994;5.880;2024-03-08T15:18:44;26.60;29.60
55711;DHT22;41612;51.994;5.880;2024-03-08T15:21:35;26.40;29.30
55711;DHT22;41612;51.994;5.880;2024-03-08T15:24:07;26.20;25.90
55711;DHT22;41612;51.994;5.880;2024-03-08T15:26:45;25.90;27.30
55711;DHT22;41612;51.994;5.880;2024-03-08T15:29:13;25.60;26.80
55711;DHT22;41612;51.994;5.880;2024-03-08T15:31:42;25.30;30.40
55711;DHT22;41612;51.994;5.880;2024-03-08T15:34:14;25.30;30.60
55711;DHT22;41612;51.994;5.880;2024-03-08T15:36:47;25.30;33.70
55711;DHT22;41612;51.994;5.880;2024-03-08T15:39:18;25.30;32.90
55711;DHT22;41612;51.994;5.880;2024-03-08T15:41:56;25.20;33.30
55711;DHT22;41612;51.994;5.880;2024-03-08T15:44:27;25.30;27.30
55711;DHT22;41612;51.994;5.880;2024-03-08T15:47:13;24.70;30.40
55711;DHT22;41612;51.994;5.880;2024-03-08T15:49:45;24.70;30.40
55711;DHT22;41612;51.994;5.880;2024-03-08T15:52:11;24.50;32.80
55711;DHT22;41612;51.994;5.880;2024-03-08T15:54:40;24.50;31.70
55711;DHT22;41612;51.994;5.880;2024-03-08T15:57:11;24.40;33.20
55711;DHT22;41612;51.994;5.880;2024-03-08T15:59:40;24.00;33.70
55711;DHT22;41612;51.994;5.880;2024-03-08T16:02:08;23.70;31.20
55711;DHT22;41612;51.994;5.880;2024-03-08T16:04:35;23.40;27.30
55711;DHT22;41612;51.994;5.880;2024-03-08T16:07:00;23.30;34.40
55711;DHT22;41612;51.994;5.880;2024-03-08T16:09:26;23.20;33.40
55711;DHT22;41612;51.994;5.880;2024-03-08T16:11:57;23.20;35.50
55711;DHT22;41612;51.994;5.880;2024-03-08T16:14:27;23.20;34.30
55711;DHT22;41612;51.994;5.880;2024-03-08T16:16:56;23.30;36.90
55711;DHT22;41612;51.994;5.880;2024-03-08T16:19:22;23.20;32.30
55711;DHT22;41612;51.994;5.880;2024-03-08T16:21:48;23.00;36.10
55711;DHT22;41612;51.994;5.880;2024-03-08T16:24:14;22.70;35.00
55711;DHT22;41612;51.994;5.880;2024-03-08T16:26:40;22.40;36.50
55711;DHT22;41612;51.994;5.880;2024-03-08T16:29:06;22.10;36.30
55711;DHT22;41612;51.994;5.880;2024-03-08T16:31:32;21.70;38.20
55711;DHT22;41612;51.994;5.880;2024-03-08T16:34:00;21.40;37.30
55711;DHT22;41612;51.994;5.880;2024-03-08T16:36:26;20.80;36.50
55711;DHT22;41612;51.994;5.880;2024-03-08T16:38:59;20.20;32.90
55711;DHT22;41612;51.994;5.880;2024-03-08T16:41:25;19.30;44.30
55711;DHT22;41612;51.994;5.880;2024-03-08T16:43:53;18.00;38.30
55711;DHT22;41612;51.994;5.880;2024-03-08T16:46:24;16.70;42.60
55711;DHT22;41612;51.994;5.880;2024-03-08T16:48:56;15.70;44.10
55711;DHT22;41612;51.994;5.880;2024-03-08T16:51:33;14.90;51.50
55711;DHT22;41612;51.994;5.880;2024-03-08T16:54:09;14.40;53.80
55711;DHT22;41612;51.994;5.880;2024-03-08T16:56:36;14.00;61.20
55711;DHT22;41612;51.994;5.880;2024-03-08T16:59:03;13.70;60.70
55711;DHT22;41612;51.994;5.880;2024-03-08T17:04:16;13.10;58.30
55711;DHT22;41612;51.994;5.880;2024-03-08T17:07:24;12.90;63.20
55711;DHT22;41612;51.994;5.880;2024-03-08T17:09:59;12.70;61.10
55711;DHT22;41612;51.994;5.880;2024-03-08T17:12:29;12.40;60.70
55711;DHT22;41612;51.994;5.880;2024-03-08T17:15:00;12.30;63.90
55711;DHT22;41612;51.994;5.880;2024-03-08T17:17:41;12.20;64.10
55711;DHT22;41612;51.994;5.880;2024-03-08T17:20:34;12.20;65.10
55711;DHT22;41612;51.994;5.880;2024-03-08T17:23:52;11.90;58.10
55711;DHT22;41612;51.994;5.880;2024-03-08T17:26:22;11.90;68.90
55711;DHT22;41612;51.994;5.880;2024-03-08T17:28:56;11.80;66.80
55711;DHT22;41612;51.994;5.880;2024-03-08T17:31:26;11.60;61.30
55711;DHT22;41612;51.994;5.880;2024-03-08T17:33:55;11.50;65.50
55711;DHT22;41612;51.994;5.880;2024-03-08T17:36:36;11.30;61.60
55711;DHT22;41612;51.994;5.880;2024-03-08T17:39:02;11.20;64.70
55711;DHT22;41612;51.994;5.880;2024-03-08T17:41:28;11.20;71.20
55711;DHT22;41612;51.994;5.880;2024-03-08T17:43:57;11.20;71.20
55711;DHT22;41612;51.994;5.880;2024-03-08T17:46:26;11.20;70.40
55711;DHT22;41612;51.994;5.880;2024-03-08T17:49:04;11.00;70.10
55711;DHT22;41612;51.994;5.880;2024-03-08T17:51:40;10.90;69.90
55711;DHT22;41612;51.994;5.880;2024-03-08T17:54:08;10.90;69.90
55711;DHT22;41612;51.994;5.880;2024-03-08T17:56:43;10.90;72.90
55711;DHT22;41612;51.994;5.880;2024-03-08T17:59:10;10.80;69.70
55711;DHT22;41612;51.994;5.880;2024-03-08T18:01:40;10.80;73.70
55711;DHT22;41612;51.994;5.880;2024-03-08T18:04:09;10.80;72.70
55711;DHT22;41612;51.994;5.880;2024-03-08T18:06:36;10.70;72.80
55711;DHT22;41612;51.994;5.880;2024-03-08T18:09:08;10.60;72.60
55711;DHT22;41612;51.994;5.880;2024-03-08T20:12:49;8.40;77.40
55711;DHT22;41612;51.994;5.880;2024-03-08T20:15:19;8.40;75.90
55711;DHT22;41612;51.994;5.880;2024-03-08T21:09:08;7.90;77.60
55711;DHT22;41612;51.994;5.880;2024-03-08T21:14:22;7.80;76.00
55711;DHT22;41612;51.994;5.880;2024-03-08T21:16:58;7.80;77.70
55711;DHT22;41612;51.994;5.880;2024-03-08T21:19:31;7.70;71.90
55711;DHT22;41612;51.994;5.880;2024-03-08T21:21:58;7.70;76.10
55711;DHT22;41612;51.994;5.880;2024-03-08T21:24:24;7.70;76.20
55711;DHT22;41612;51.994;5.880;2024-03-08T21:26:53;7.70;77.10
55711;DHT22;41612;51.994;5.880;2024-03-08T21:29:20;7.70;76.10
55711;DHT22;41612;51.994;5.880;2024-03-08T21:31:46;7.60;74.00
55711;DHT22;41612;51.994;5.880;2024-03-08T21:34:12;7.70;74.20
55711;DHT22;41612;51.994;5.880;2024-03-08T21:36:40;7.70;78.40
55711;DHT22;41612;51.994;5.880;2024-03-08T21:39:10;7.60;76.60
55711;DHT22;41612;51.994;5.880;2024-03-08T21:41:37;7.60;75.50
55711;DHT22;41612;51.994;5.880;2024-03-08T21:44:03;7.60;77.90
55711;DHT22;41612;51.994;5.880;2024-03-08T21:46:29;7.50;74.10
55711;DHT22;41612;51.994;5.880;2024-03-08T21:48:55;7.50;75.40
55711;DHT22;41612;51.994;5.880;2024-03-08T21:51:22;7.50;77.50
55711;DHT22;41612;51.994;5.880;2024-03-08T21:53:48;7.40;74.00
55711;DHT22;41612;51.994;5.880;2024-03-08T21:56:13;7.50;75.60
55711;DHT22;41612;51.994;5.880;2024-03-08T21:58:42;7.50;76.70
55711;DHT22;41612;51.994;5.880;2024-03-08T22:01:10;7.40;77.00
55711;DHT22;41612;51.994;5.880;2024-03-08T22:03:36;7.30;76.90
55711;DHT22;41612;51.994;5.880;2024-03-08T22:06:03;7.30;76.40
55711;DHT22;41612;51.994;5.880;2024-03-08T22:08:35;7.30;76.90
55711;DHT22;41612;51.994;5.880;2024-03-08T22:11:04;7.30;74.20
55711;DHT22;41612;51.994;5.880;2024-03-08T22:13:30;7.30;77.90
55711;DHT22;41612;51.994;5.880;2024-03-08T22:15:55;7.30;80.20
55711;DHT22;41612;51.994;5.880;2024-03-08T22:18:24;7.30;81.10
55711;DHT22;41612;51.994;5.880;2024-03-08T22:20:55;7.30;79.50
55711;DHT22;41612;51.994;5.880;2024-03-08T22:23:21;7.20;78.30
55711;DHT22;41612;51.994;5.880;2024-03-08T22:25:49;7.20;76.30
55711;DHT22;41612;51.994;5.880;2024-03-08T22:28:16;7.20;78.20
55711;DHT22;41612;51.994;5.880;2024-03-08T22:30:48;7.10;78.90
55711;DHT22;41612;51.994;5.880;2024-03-08T22:33:14;7.10;78.30
55711;DHT22;41612;51.994;5.880;2024-03-08T22:35:41;7.10;78.80
55711;DHT22;41612;51.994;5.880;2024-03-08T22:38:07;7.10;77.60
55711;DHT22;41612;51.994;5.880;2024-03-08T22:40:35;7.00;77.90
55711;DHT22;41612;51.994;5.880;2024-03-08T22:43:01;7.00;78.20
55711;DHT22;41612;51.994;5.880;2024-03-08T22:45:26;7.00;76.10
55711;DHT22;41612;51.994;5.880;2024-03-08T22:47:53;7.00;76.40
55711;DHT22;41612;51.994;5.880;2024-03-08T22:50:20;7.00;77.70
55711;DHT22;41612;51.994;5.880;2024-03-08T22:52:50;6.90;76.20
55711;DHT22;41612;51.994;5.880;2024-03-08T22:55:17;7.00;80.20
55711;DHT22;41612;51.994;5.880;2024-03-08T22:57:46;7.00;78.50
55711;DHT22;41612;51.994;5.880;2024-03-08T23:00:14;6.90;80.20
55711;DHT22;41612;51.994;5.880;2024-03-08T23:02:53;6.90;76.60
55711;DHT22;41612;51.994;5.880;2024-03-08T23:05:19;6.80;79.70
55711;DHT22;41612;51.994;5.880;2024-03-08T23:07:47;6.80;80.10
55711;DHT22;41612;51.994;5.880;2024-03-08T23:10:14;6.80;80.40
55711;DHT22;41612;51.994;5.880;2024-03-08T23:12:40;6.80;81.10
55711;DHT22;41612;51.994;5.880;2024-03-08T23:15:09;6.70;78.90
55711;DHT22;41612;51.994;5.880;2024-03-08T23:17:47;6.70;78.20
55711;DHT22;41612;51.994;5.880;2024-03-08T23:20:16;6.80;79.70
55711;DHT22;41612;51.994;5.880;2024-03-08T23:22:45;6.70;81.20
55711;DHT22;41612;51.994;5.880;2024-03-08T23:25:18;6.70;80.10
55711;DHT22;41612;51.994;5.880;2024-03-08T23:27:54;6.70;81.50
55711;DHT22;41612;51.994;5.880;2024-03-08T23:30:21;6.70;79.70
55711;DHT22;41612;51.994;5.880;2024-03-08T23:32:50;6.60;79.00
55711;DHT22;41612;51.994;5.880;2024-03-08T23:35:17;6.60;79.10
55711;DHT22;41612;51.994;5.880;2024-03-08T23:37:44;6.50;77.70
55711;DHT22;41612;51.994;5.880;2024-03-08T23:40:11;6.50;77.60
55711;DHT22;41612;51.994;5.880;2024-03-08T23:42:43;6.50;76.70
55711;DHT22;41612;51.994;5.880;2024-03-08T23:45:12;6.50;78.10
55711;DHT22;41612;51.994;5.880;2024-03-08T23:47:49;6.40;75.10
55711;DHT22;41612;51.994;5.880;2024-03-08T23:50:17;6.40;74.20
55711;DHT22;41612;51.994;5.880;2024-03-08T23:52:46;6.40;79.50
55711;DHT22;41612;51.994;5.880;2024-03-08T23:55:15;6.30;79.20
55711;DHT22;41612;51.994;5.880;2024-03-08T23:58:08;6.30;75.20
